createdAt,value
2018-07-17T00:02:27.509Z,99730.28
2018-07-17T00:05:00.473Z,99727.73
2018-07-17T00:07:33.897Z,99731.25
2018-07-17T00:10:08.518Z,99725.41
2018-07-17T00:12:41.419Z,99729.98
2018-07-17T00:15:15.676Z,99726.87
2018-07-17T00:17:50.195Z,99727.32
2018-07-17T00:20:25.989Z,99732.84
2018-07-17T00:22:59.826Z,99730.12
2018-07-17T00:25:32.552Z,99729.88
2018-07-17T00:28:05.469Z,99731.73
2018-07-17T00:30:39.160Z,99726.25
2018-07-17T00:33:14.803Z,99723.73
2018-07-17T00:35:48.212Z,99716.91
2018-07-17T00:38:20.696Z,99721.19
2018-07-17T00:40:53.333Z,99718.84
2018-07-17T00:43:26.869Z,99715.83
2018-07-17T00:46:01.181Z,99714.66
2018-07-17T00:48:35.225Z,99712.59
2018-07-17T00:51:08.137Z,99714.28
2018-07-17T00:53:40.682Z,99714.85
2018-07-17T00:56:14.556Z,99716.61
2018-07-17T00:58:48.302Z,99716.61
2018-07-17T01:01:26.522Z,99711.76
2018-07-17T01:04:05.605Z,99715.20
2018-07-17T01:06:45.877Z,99713.46
2018-07-17T01:09:24.269Z,99713.88
2018-07-17T01:12:03.530Z,99716.87
2018-07-17T01:14:50.356Z,99712.91
2018-07-17T01:17:24.991Z,99707.88
2018-07-17T01:19:58.828Z,99704.13
2018-07-17T01:22:31.529Z,99703.45
2018-07-17T01:25:05.260Z,99705.61
2018-07-17T01:27:38.322Z,99703.17
2018-07-17T01:30:13.353Z,99701.45
2018-07-17T01:32:45.853Z,99699.70
2018-07-17T01:35:18.628Z,99704.06
2018-07-17T01:37:51.248Z,99703.71
2018-07-17T01:40:24.865Z,99705.27
2018-07-17T01:42:58.702Z,99702.09
2018-07-17T01:45:31.480Z,99702.23
2018-07-17T01:48:05.673Z,99701.24
2018-07-17T01:50:38.407Z,99699.44
2018-07-17T01:53:11.640Z,99700.67
2018-07-17T01:55:44.188Z,99699.35
2018-07-17T01:58:18.551Z,99700.52
2018-07-17T02:00:50.988Z,99707.24
2018-07-17T02:03:23.780Z,99698.06
2018-07-17T02:05:57.561Z,99701.92
2018-07-17T02:08:30.832Z,99706.47
2018-07-17T02:11:03.996Z,99704.09
2018-07-17T02:13:41.457Z,99699.88
2018-07-17T02:16:14.300Z,99703.20
2018-07-17T02:18:47.852Z,99700.62
2018-07-17T02:21:20.572Z,99698.23
2018-07-17T02:23:53.188Z,99700.58
2018-07-17T02:26:25.701Z,99702.58
2018-07-17T02:28:58.480Z,99699.30
2018-07-17T02:31:30.943Z,99705.26
2018-07-17T02:34:03.461Z,99706.23
2018-07-17T02:36:36.956Z,99709.30
2018-07-17T02:39:10.037Z,99705.58
2018-07-17T02:41:43.275Z,99704.60
2018-07-17T02:44:16.278Z,99702.59
2018-07-17T02:46:48.881Z,99696.89
2018-07-17T02:49:21.922Z,99693.09
2018-07-17T02:52:02.497Z,99691.61
2018-07-17T02:54:35.261Z,99700.14
2018-07-17T02:57:07.937Z,99700.41
2018-07-17T02:59:41.073Z,99698.81
2018-07-17T03:02:13.485Z,99701.08
2018-07-17T03:04:46.480Z,99700.34
2018-07-17T03:07:19.320Z,99698.92
2018-07-17T03:09:52.290Z,99704.00
2018-07-17T03:12:24.896Z,99706.90
2018-07-17T03:14:58.197Z,99711.33
2018-07-17T03:17:30.649Z,99715.07
2018-07-17T03:20:03.429Z,99718.14
2018-07-17T03:22:36.120Z,99717.50
2018-07-17T03:25:09.302Z,99721.41
2018-07-17T03:27:41.730Z,99724.64
2018-07-17T03:30:16.027Z,99721.75
2018-07-17T03:32:48.534Z,99717.81
2018-07-17T03:35:21.131Z,99715.65
2018-07-17T03:37:53.824Z,99722.84
2018-07-17T03:40:26.272Z,99721.90
2018-07-17T03:42:59.528Z,99725.31
2018-07-17T03:45:34.629Z,99732.48
2018-07-17T03:48:08.153Z,99737.78
2018-07-17T03:50:42.465Z,99750.25
2018-07-17T03:53:16.937Z,99752.86
2018-07-17T03:55:49.540Z,99759.83
2018-07-17T03:58:22.953Z,99764.89
2018-07-17T04:00:56.734Z,99765.36
2018-07-17T04:03:29.933Z,99765.80
2018-07-17T04:06:03.943Z,99762.06
2018-07-17T04:08:38.421Z,99750.19
2018-07-17T04:11:12.644Z,99747.42
2018-07-17T04:13:46.221Z,99751.91
2018-07-17T04:16:25.085Z,99755.55
2018-07-17T04:18:57.683Z,99755.66
2018-07-17T04:21:33.465Z,99756.98
2018-07-17T04:24:06.428Z,99757.94
2018-07-17T04:26:39.770Z,99761.44
2018-07-17T04:29:12.786Z,99763.60
2018-07-17T04:31:45.899Z,99753.75
2018-07-17T04:34:18.885Z,99762.86
2018-07-17T04:36:53.688Z,99767.02
2018-07-17T04:39:27.739Z,99761.01
2018-07-17T04:42:04.559Z,99757.09
2018-07-17T04:44:37.257Z,99765.29
2018-07-17T04:47:11.736Z,99769.70
2018-07-17T04:49:44.453Z,99776.98
2018-07-17T04:52:16.987Z,99781.97
2018-07-17T04:54:50.169Z,99783.36
2018-07-17T04:57:22.576Z,99794.21
2018-07-17T04:59:57.268Z,99789.25
2018-07-17T05:02:30.424Z,99786.46
2018-07-17T05:05:03.135Z,99790.25
2018-07-17T05:07:35.965Z,99791.67
2018-07-17T05:10:10.557Z,99792.48
2018-07-17T05:12:44.185Z,99795.36
2018-07-17T05:15:17.303Z,99797.42
2018-07-17T05:17:50.105Z,99793.56
2018-07-17T05:20:24.233Z,99797.37
2018-07-17T05:22:56.755Z,99805.10
2018-07-17T05:25:30.016Z,99815.80
2018-07-17T05:28:02.500Z,99816.63
2018-07-17T05:30:35.092Z,99810.00
2018-07-17T05:33:15.212Z,99812.47
2018-07-17T05:35:47.848Z,99806.63
2018-07-17T05:38:20.669Z,99806.42
2018-07-17T05:40:54.796Z,99806.75
2018-07-17T05:43:28.232Z,99807.20
2018-07-17T05:46:00.728Z,99807.69
2018-07-17T05:48:34.780Z,99810.25
2018-07-17T05:51:08.008Z,99814.11
2018-07-17T05:53:41.026Z,99811.09
2018-07-17T05:56:14.548Z,99813.77
2018-07-17T05:58:47.781Z,99814.59
2018-07-17T06:01:21.185Z,99818.12
2018-07-17T06:03:56.056Z,99822.09
2018-07-17T06:06:28.596Z,99820.06
2018-07-17T06:09:01.130Z,99817.34
2018-07-17T06:11:34.944Z,99823.77
2018-07-17T06:14:08.378Z,99820.47
2018-07-17T06:16:41.640Z,99823.53
2018-07-17T06:19:15.725Z,99826.86
2018-07-17T06:21:48.749Z,99821.30
2018-07-17T06:24:21.111Z,99821.02
2018-07-17T06:26:55.677Z,99825.44
2018-07-17T06:29:29.295Z,99823.73
2018-07-17T06:32:03.204Z,99825.34
2018-07-17T06:34:35.997Z,99831.75
2018-07-17T06:37:10.528Z,99844.27
2018-07-17T06:39:45.094Z,99844.02
2018-07-17T06:42:19.057Z,99844.75
2018-07-17T06:44:55.216Z,99841.48
2018-07-17T06:47:28.785Z,99840.22
2018-07-17T06:50:08.645Z,99847.22
2018-07-17T06:52:43.868Z,99842.21
2018-07-17T06:55:19.538Z,99842.67
2018-07-17T06:57:55.465Z,99851.51
2018-07-17T07:00:28.808Z,99850.45
2018-07-17T07:03:05.394Z,99846.00
2018-07-17T07:05:42.028Z,99851.28
2018-07-17T07:08:17.933Z,99850.27
2018-07-17T07:10:50.887Z,99851.14
2018-07-17T07:13:24.720Z,99850.41
2018-07-17T07:15:57.386Z,99855.52
2018-07-17T07:18:33.028Z,99854.14
2018-07-17T07:21:05.572Z,99852.52
2018-07-17T07:23:41.051Z,99851.23
2018-07-17T07:26:15.247Z,99855.16
2018-07-17T07:28:47.948Z,99856.16
2018-07-17T07:31:20.546Z,99851.53
2018-07-17T07:33:54.240Z,99860.73
2018-07-17T07:36:26.845Z,99856.91
2018-07-17T07:38:59.400Z,99856.40
2018-07-17T07:41:33.161Z,99857.66
2018-07-17T07:44:06.337Z,99859.52
2018-07-17T07:46:39.971Z,99858.59
2018-07-17T07:49:13.818Z,99858.63
2018-07-17T07:51:46.241Z,99860.48
2018-07-17T07:54:19.793Z,99859.38
2018-07-17T07:56:52.552Z,99865.68
2018-07-17T07:59:27.477Z,99863.41
2018-07-17T08:02:02.668Z,99869.37
2018-07-17T08:04:39.344Z,99871.81
2018-07-17T08:07:17.691Z,99873.12
2018-07-17T08:09:58.607Z,99875.32
2018-07-17T08:12:32.469Z,99874.19
2018-07-17T08:15:10.733Z,99876.59
2018-07-17T08:17:46.161Z,99880.84
2018-07-17T08:20:22.012Z,99882.20
2018-07-17T08:23:06.194Z,99885.27
2018-07-17T08:25:41.238Z,99883.83
2018-07-17T08:28:14.368Z,99883.91
2018-07-17T08:30:49.537Z,99881.88
2018-07-17T08:33:25.036Z,99878.47
2018-07-17T08:36:00.032Z,99872.22
2018-07-17T08:38:33.964Z,99873.39
2018-07-17T08:41:12.558Z,99868.69
2018-07-17T08:43:45.761Z,99868.59
2018-07-17T08:46:20.735Z,99864.19
2018-07-17T08:48:55.789Z,99866.73
2018-07-17T08:51:29.615Z,99871.89
2018-07-17T08:54:05.318Z,99866.48
2018-07-17T08:56:39.160Z,99874.27
2018-07-17T08:59:12.676Z,99874.87
2018-07-17T09:01:45.781Z,99878.07
2018-07-17T09:04:20.305Z,99880.02
2018-07-17T09:06:59.373Z,99879.18
2018-07-17T09:09:33.676Z,99876.19
2018-07-17T09:12:08.449Z,99889.75
2018-07-17T09:15:05.039Z,99890.25
2018-07-17T09:17:40.564Z,99891.88
2018-07-17T09:20:24.296Z,99891.27
2018-07-17T09:22:57.555Z,99895.79
2018-07-17T09:25:32.874Z,99901.91
2018-07-17T09:28:07.856Z,99895.45
2018-07-17T09:30:46.486Z,99900.58
2018-07-17T09:33:21.523Z,99901.37
2018-07-17T09:35:57.424Z,99903.82
2018-07-17T09:38:30.676Z,99896.86
2018-07-17T09:41:03.771Z,99893.05
2018-07-17T09:43:38.759Z,99900.67
2018-07-17T09:46:12.808Z,99902.19
2018-07-17T09:48:47.252Z,99902.15
2018-07-17T09:51:21.414Z,99901.67
2018-07-17T09:53:53.974Z,99907.75
2018-07-17T09:56:30.787Z,99904.92
2018-07-17T09:59:06.804Z,99906.72
2018-07-17T10:01:49.708Z,99909.29
2018-07-17T10:04:28.472Z,99907.27
2018-07-17T10:07:03.421Z,99903.73
2018-07-17T10:09:41.462Z,99903.13
2018-07-17T10:12:30.130Z,99903.47
2018-07-17T10:15:12.152Z,99903.66
2018-07-17T10:17:46.790Z,99905.56
2018-07-17T10:20:22.884Z,99902.48
2018-07-17T10:23:04.380Z,99902.91
2018-07-17T10:25:39.885Z,99906.86
2018-07-17T10:28:13.924Z,99907.38
2018-07-17T10:30:48.237Z,99908.76
2018-07-17T10:33:21.070Z,99906.19
2018-07-17T10:35:57.693Z,99896.69
2018-07-17T10:38:33.960Z,99906.83
2018-07-17T10:41:25.224Z,99899.22
2018-07-17T10:44:00.416Z,99902.89
2018-07-17T10:46:33.997Z,99900.70
2018-07-17T10:49:14.792Z,99895.52
2018-07-17T10:52:02.837Z,99893.94
2018-07-17T10:54:44.636Z,99897.05
2018-07-17T10:57:24.671Z,99899.68
2018-07-17T11:00:03.715Z,99892.97
2018-07-17T11:02:48.436Z,99902.42
2018-07-17T11:05:27.450Z,99888.64
2018-07-17T11:08:08.606Z,99891.72
2018-07-17T11:10:54.276Z,99899.02
2018-07-17T11:13:28.324Z,99889.66
2018-07-17T11:16:01.974Z,99887.79
2018-07-17T11:18:36.100Z,99883.09
2018-07-17T11:21:09.444Z,99875.30
2018-07-17T11:23:48.937Z,99875.77
2018-07-17T11:26:26.026Z,99878.72
2018-07-17T11:29:00.968Z,99880.56
2018-07-17T11:31:35.681Z,99869.08
2018-07-17T11:34:08.964Z,99871.37
2018-07-17T11:36:45.588Z,99868.58
2018-07-17T11:39:26.317Z,99868.95
2018-07-17T11:41:59.468Z,99866.40
2018-07-17T11:44:32.732Z,99868.61
2018-07-17T11:47:07.122Z,99867.09
2018-07-17T11:49:44.482Z,99860.59
2018-07-17T11:52:21.796Z,99858.35
2018-07-17T11:54:54.302Z,99856.00
2018-07-17T11:57:29.302Z,99857.16
2018-07-17T12:00:04.932Z,99858.92
2018-07-17T12:02:39.690Z,99861.61
2018-07-17T12:05:14.091Z,99855.34
2018-07-17T12:07:50.017Z,99850.65
2018-07-17T12:10:23.501Z,99854.59
2018-07-17T12:12:56.990Z,99860.84
2018-07-17T12:15:34.053Z,99857.23
2018-07-17T12:18:06.505Z,99863.55
2018-07-17T12:20:43.020Z,99854.33
2018-07-17T12:23:16.066Z,99852.33
2018-07-17T12:25:52.394Z,99855.22
2018-07-17T12:28:33.415Z,99851.55
2018-07-17T12:31:07.921Z,99844.33
2018-07-17T12:33:43.392Z,99851.47
2018-07-17T12:36:19.649Z,99852.28
2018-07-17T12:38:53.391Z,99850.72
2018-07-17T12:41:26.986Z,99853.68
2018-07-17T12:44:05.831Z,99852.38
2018-07-17T12:46:43.142Z,99856.08
2018-07-17T12:49:19.298Z,99859.83
2018-07-17T12:52:01.940Z,99848.86
2018-07-17T12:54:36.852Z,99846.45
2018-07-17T12:57:09.392Z,99854.33
2018-07-17T12:59:45.246Z,99849.30
2018-07-17T13:02:18.830Z,99847.78
2018-07-17T13:04:52.843Z,99847.86
2018-07-17T13:07:27.311Z,99850.86
2018-07-17T13:10:04.308Z,99838.57
2018-07-17T13:12:37.784Z,99839.59
2018-07-17T13:15:20.232Z,99838.37
2018-07-17T13:17:55.055Z,99841.11
2018-07-17T13:20:29.713Z,99842.72
2018-07-17T13:23:10.601Z,99837.41
2018-07-17T13:25:43.620Z,99847.11
2018-07-17T13:28:17.231Z,99843.52
2018-07-17T13:30:49.785Z,99844.04
2018-07-17T13:33:24.384Z,99836.86
2018-07-17T13:35:58.951Z,99836.72
2018-07-17T13:38:32.192Z,99837.25
2018-07-17T13:41:06.673Z,99834.25
2018-07-17T13:43:40.608Z,99838.72
2018-07-17T13:46:16.973Z,99828.72
2018-07-17T13:48:52.416Z,99829.66
2018-07-17T13:51:25.566Z,99835.45
2018-07-17T13:53:58.872Z,99832.85
2018-07-17T13:56:33.587Z,99830.20
2018-07-17T13:59:07.207Z,99830.57
2018-07-17T14:01:39.633Z,99818.05
2018-07-17T14:04:13.003Z,99830.09
2018-07-17T14:06:47.605Z,99844.23
2018-07-17T14:09:26.293Z,99837.63
2018-07-17T14:12:00.492Z,99832.59
2018-07-17T14:14:36.673Z,99822.79
2018-07-17T14:17:14.012Z,99830.27
2018-07-17T14:19:46.480Z,99833.23
2018-07-17T14:22:21.827Z,99833.83
2018-07-17T14:24:57.177Z,99829.88
2018-07-17T14:27:31.480Z,99831.86
2018-07-17T14:30:08.352Z,99828.84
2018-07-17T14:32:42.935Z,99827.88
2018-07-17T14:35:17.654Z,99829.86
2018-07-17T14:37:52.936Z,99822.89
2018-07-17T14:40:37.544Z,99820.95
2018-07-17T14:43:11.310Z,99828.03
2018-07-17T14:45:46.597Z,99831.54
2018-07-17T14:48:31.791Z,99832.70
2018-07-17T14:51:09.317Z,99832.23
2018-07-17T14:53:43.195Z,99818.81
2018-07-17T14:56:17.400Z,99822.10
2018-07-17T14:58:49.905Z,99820.80
2018-07-17T15:01:23.450Z,99823.73
2018-07-17T15:03:56.888Z,99824.20
2018-07-17T15:06:29.377Z,99823.88
2018-07-17T15:09:09.802Z,99823.00
2018-07-17T15:11:44.188Z,99822.83
2018-07-17T15:14:25.533Z,99821.73
2018-07-17T15:17:02.044Z,99815.30
2018-07-17T15:19:37.077Z,99823.03
2018-07-17T15:22:18.377Z,99821.44
2018-07-17T15:24:54.444Z,99822.64
2018-07-17T15:27:29.068Z,99830.48
2018-07-17T15:30:04.593Z,99824.21
2018-07-17T15:32:42.011Z,99827.56
2018-07-17T15:35:22.724Z,99826.12
2018-07-17T15:37:58.051Z,99826.92
2018-07-17T15:40:30.870Z,99823.89
2018-07-17T15:43:06.655Z,99829.74
2018-07-17T15:45:41.767Z,99829.02
2018-07-17T15:48:19.181Z,99827.19
2018-07-17T15:50:52.335Z,99829.33
2018-07-17T15:53:30.060Z,99828.13
2018-07-17T15:56:03.006Z,99830.17
2018-07-17T15:58:37.288Z,99833.26
2018-07-17T16:01:13.537Z,99832.98
2018-07-17T16:03:46.991Z,99837.16
2018-07-17T16:06:20.433Z,99834.64
2018-07-17T16:08:55.438Z,99837.50
2018-07-17T16:11:33.058Z,99832.56
2018-07-17T16:14:06.382Z,99837.00
2018-07-17T16:16:49.629Z,99838.09
2018-07-17T16:19:46.561Z,99835.66
2018-07-17T16:22:22.689Z,99840.87
2018-07-17T16:25:04.639Z,99839.77
2018-07-17T16:27:41.305Z,99842.48
2018-07-17T16:30:25.139Z,99839.92
2018-07-17T16:33:01.366Z,99843.15
2018-07-17T16:35:37.712Z,99842.45
2018-07-17T16:38:15.363Z,99841.13
2018-07-17T16:40:52.921Z,99841.95
2018-07-17T16:43:25.435Z,99847.22
2018-07-17T16:46:01.444Z,99841.16
2018-07-17T16:48:35.672Z,99852.38
2018-07-17T16:51:11.538Z,99848.47
2018-07-17T16:53:47.662Z,99845.88
2018-07-17T16:56:21.590Z,99845.30
2018-07-17T16:58:59.606Z,99841.12
2018-07-17T17:01:39.020Z,99849.16
2018-07-17T17:04:12.752Z,99846.67
2018-07-17T17:06:49.241Z,99851.11
2018-07-17T17:09:22.587Z,99846.70
2018-07-17T17:12:01.618Z,99857.06
2018-07-17T17:14:36.165Z,99850.13
2018-07-17T17:17:09.948Z,99853.38
2018-07-17T17:19:45.179Z,99857.84
2018-07-17T17:22:22.539Z,99860.92
2018-07-17T17:24:54.983Z,99853.06
2018-07-17T17:27:30.736Z,99858.66
2018-07-17T17:30:25.354Z,99853.82
2018-07-17T17:33:09.652Z,99853.97
2018-07-17T17:35:44.312Z,99861.50
2018-07-17T17:38:19.112Z,99857.20
2018-07-17T17:40:51.749Z,99858.20
2018-07-17T17:43:24.301Z,99866.33
2018-07-17T17:46:00.868Z,99865.42
2018-07-17T17:48:34.176Z,99871.92
2018-07-17T17:51:07.732Z,99865.95
2018-07-17T17:53:40.353Z,99867.25
2018-07-17T17:56:14.969Z,99874.75
2018-07-17T17:58:54.308Z,99876.31
2018-07-17T18:01:28.628Z,99884.20
2018-07-17T18:04:05.944Z,99876.70
2018-07-17T18:06:42.045Z,99879.87
2018-07-17T18:09:17.811Z,99881.57
2018-07-17T18:11:54.484Z,99883.81
2018-07-17T18:14:31.170Z,99888.71
2018-07-17T18:17:08.673Z,99894.78
2018-07-17T18:19:46.098Z,99896.30
2018-07-17T18:22:20.708Z,99910.63
2018-07-17T18:24:54.641Z,99908.73
2018-07-17T18:27:31.425Z,99913.00
2018-07-17T18:30:08.030Z,99919.31
2018-07-17T18:32:42.172Z,99924.25
2018-07-17T18:35:17.954Z,99931.31
2018-07-17T18:37:52.087Z,99935.57
2018-07-17T18:40:24.543Z,99944.95
2018-07-17T18:42:59.019Z,99946.05
2018-07-17T18:45:40.442Z,99951.97
2018-07-17T18:48:15.308Z,99953.64
2018-07-17T18:50:50.164Z,99962.56
2018-07-17T18:53:25.691Z,99970.55
2018-07-17T18:56:00.448Z,99974.33
2018-07-17T18:58:33.835Z,99980.26
2018-07-17T19:01:09.188Z,99984.88
2018-07-17T19:03:42.891Z,99990.33
2018-07-17T19:06:18.813Z,99991.53
2018-07-17T19:08:54.267Z,99994.81
2018-07-17T19:11:27.757Z,99996.41
2018-07-17T19:14:05.600Z,99992.44
2018-07-17T19:16:39.063Z,100007.60
2018-07-17T19:19:21.010Z,100007.19
2018-07-17T19:21:59.052Z,100017.66
2018-07-17T19:24:43.156Z,100017.79
2018-07-17T19:27:17.498Z,100020.55
2018-07-17T19:30:07.601Z,100023.50
2018-07-17T19:32:48.579Z,100030.05
2018-07-17T19:35:24.892Z,100035.07
2018-07-17T19:38:02.705Z,100034.71
2018-07-17T19:40:41.076Z,100042.05
2018-07-17T19:43:15.450Z,100042.67
2018-07-17T19:45:56.328Z,100046.73
2018-07-17T19:48:33.440Z,100050.87
2018-07-17T19:51:08.408Z,100054.25
2018-07-17T19:53:46.205Z,100058.94
2018-07-17T19:56:19.269Z,100062.64
2018-07-17T19:58:58.091Z,100066.02
2018-07-17T20:01:37.622Z,100075.05
2018-07-17T20:04:12.308Z,100075.72
2018-07-17T20:06:47.157Z,100086.45
2018-07-17T20:09:22.719Z,100086.09
2018-07-17T20:12:02.440Z,100086.84
2018-07-17T20:14:37.375Z,100094.36
2018-07-17T20:17:10.661Z,100101.27
2018-07-17T20:19:46.639Z,100102.28
2018-07-17T20:22:21.052Z,100110.34
2018-07-17T20:24:57.223Z,100108.06
2018-07-17T20:27:32.257Z,100115.80
2018-07-17T20:30:18.465Z,100124.38
2018-07-17T20:32:57.778Z,100118.90
2018-07-17T20:35:30.417Z,100127.73
2018-07-17T20:38:06.994Z,100137.41
2018-07-17T20:40:43.057Z,100137.73
2018-07-17T20:43:20.336Z,100134.28
2018-07-17T20:45:59.792Z,100138.38
2018-07-17T20:48:54.908Z,100134.11
2018-07-17T20:51:33.688Z,100138.98
2018-07-17T20:54:07.386Z,100137.42
2018-07-17T20:56:40.880Z,100139.68
2018-07-17T20:59:15.984Z,100135.91
2018-07-17T21:01:50.699Z,100144.86
2018-07-17T21:04:27.654Z,100137.99
2018-07-17T21:07:00.412Z,100150.36
2018-07-17T21:09:42.056Z,100148.95
2018-07-17T21:12:15.685Z,100152.44
2018-07-17T21:14:52.037Z,100157.56
2018-07-17T21:17:28.736Z,100157.12
2018-07-17T21:20:03.882Z,100159.61
2018-07-17T21:22:38.837Z,100157.84
2018-07-17T21:25:13.521Z,100166.13
2018-07-17T21:27:51.068Z,100161.84
2018-07-17T21:30:28.852Z,100162.29
2018-07-17T21:33:01.421Z,100157.25
2018-07-17T21:35:44.003Z,100170.23
2018-07-17T21:38:19.432Z,100169.59
2018-07-17T21:40:58.295Z,100177.95
2018-07-17T21:43:32.151Z,100175.73
2018-07-17T21:46:05.615Z,100183.72
2018-07-17T21:48:50.139Z,100188.16
2018-07-17T21:51:24.259Z,100194.97
2018-07-17T21:53:58.532Z,100192.70
2018-07-17T21:56:33.650Z,100195.58
2018-07-17T21:59:10.117Z,100201.60
2018-07-17T22:01:44.782Z,100197.62
2018-07-17T22:04:18.930Z,100201.41
2018-07-17T22:06:53.353Z,100199.63
2018-07-17T22:09:27.024Z,100205.43
2018-07-17T22:12:00.630Z,100202.18
2018-07-17T22:14:33.716Z,100202.44
2018-07-17T22:17:06.387Z,100199.61
2018-07-17T22:19:40.796Z,100204.19
2018-07-17T22:22:15.281Z,100206.89
2018-07-17T22:24:49.111Z,100204.95
2018-07-17T22:27:24.658Z,100207.81
2018-07-17T22:29:59.180Z,100206.97
2018-07-17T22:32:34.846Z,100212.10
2018-07-17T22:35:08.748Z,100216.23
2018-07-17T22:37:42.964Z,100214.22
2018-07-17T22:40:17.079Z,100211.23
2018-07-17T22:42:51.251Z,100216.53
2018-07-17T22:45:25.176Z,100213.80
2018-07-17T22:47:58.936Z,100214.22
2018-07-17T22:50:31.825Z,100216.30
2018-07-17T22:53:06.864Z,100213.61
2018-07-17T22:55:40.309Z,100213.94
2018-07-17T22:58:13.112Z,100217.33
2018-07-17T23:00:46.685Z,100215.93
2018-07-17T23:03:22.431Z,100219.15
2018-07-17T23:05:55.937Z,100216.13
2018-07-17T23:08:29.120Z,100220.30
2018-07-17T23:11:04.313Z,100228.70
2018-07-17T23:13:39.782Z,100222.06
2018-07-17T23:16:13.084Z,100225.25
2018-07-17T23:18:48.476Z,100222.73
2018-07-17T23:21:21.596Z,100217.77
2018-07-17T23:24:03.057Z,100215.23
2018-07-17T23:26:36.415Z,100209.06
2018-07-17T23:29:14.629Z,100213.91
2018-07-17T23:31:48.805Z,100214.63
2018-07-17T23:34:24.164Z,100215.61
2018-07-17T23:36:57.443Z,100217.93
2018-07-17T23:39:29.821Z,100219.13
2018-07-17T23:42:03.932Z,100216.42
2018-07-17T23:44:39.168Z,100218.89
2018-07-17T23:47:11.684Z,100217.84
2018-07-17T23:49:44.875Z,100217.47
2018-07-17T23:52:18.721Z,100218.88
2018-07-17T23:54:54.304Z,100225.30
2018-07-17T23:57:33.583Z,100226.88
